Time;durP1;ratioP1;P1;durP2;ratioP2;P2;SDS_P1;SDS_P2;PMS_P1;PMS_P2;Temp;Humidity;BMP_temperature;BMP_pressure;BME280_temperature;BME280_humidity;BME280_pressure;Samples;Min_cycle;Max_cycle;Signal;HPM_P1;HPM_P2
2023/04/04 00:01:26;;;;;;;6.22;3.00;;;1.20;99.90;;;;;;5115104;27;20039;-65
2023/04/04 00:03:51;;;;;;;6.82;3.17;;;1.20;99.90;;;;;;5117730;27;20470;-65
2023/04/04 00:06:18;;;;;;;7.18;3.65;;;1.20;99.90;;;;;;5117635;27;20455;-65
2023/04/04 00:08:44;;;;;;;5.85;3.42;;;1.20;99.90;;;;;;5112047;27;20176;-65
2023/04/04 00:11:09;;;;;;;7.78;3.30;;;1.20;99.90;;;;;;5111151;27;20126;-65
2023/04/04 00:13:36;;;;;;;7.10;3.20;;;1.20;99.90;;;;;;5125066;27;20035;-65
2023/04/04 00:16:01;;;;;;;5.53;3.13;;;1.10;99.90;;;;;;5109518;27;20043;-65
2023/04/04 00:18:27;;;;;;;7.00;3.38;;;1.10;99.90;;;;;;5107775;27;20482;-65
2023/04/04 00:20:52;;;;;;;8.00;3.28;;;1.10;99.90;;;;;;5130833;27;20444;-65
2023/04/04 00:23:18;;;;;;;7.47;3.28;;;1.10;99.90;;;;;;5113112;27;20047;-65
2023/04/04 00:25:49;;;;;;;6.60;3.30;;;1.00;99.90;;;;;;5115192;27;20062;-65
2023/04/04 00:28:15;;;;;;;6.80;3.17;;;0.90;99.90;;;;;;5127167;27;20126;-65
2023/04/04 00:30:40;;;;;;;9.18;3.50;;;0.70;99.90;;;;;;5131498;27;20460;-65
2023/04/04 00:33:06;;;;;;;9.07;3.58;;;0.60;99.90;;;;;;5113999;27;20107;-65
2023/04/04 00:35:54;;;;;;;6.03;3.40;;;0.60;99.90;;;;;;5127999;27;20689;-65
2023/04/04 00:38:20;;;;;;;5.93;3.33;;;0.50;99.90;;;;;;5133778;27;20104;-65
2023/04/04 00:40:49;;;;;;;5.05;3.17;;;0.50;99.90;;;;;;5110403;27;20108;-65
2023/04/04 00:43:16;;;;;;;7.53;3.85;;;0.40;99.90;;;;;;5131960;27;20156;-65
2023/04/04 00:45:42;;;;;;;9.20;3.78;;;0.40;99.90;;;;;;5125053;27;20498;-65
2023/04/04 00:48:13;;;;;;;7.53;3.88;;;0.40;99.90;;;;;;5128176;27;20065;-65
2023/04/04 00:50:39;;;;;;;9.13;3.70;;;0.40;99.90;;;;;;5124959;27;20059;-65
2023/04/04 00:53:05;;;;;;;7.25;3.55;;;0.30;99.90;;;;;;5126852;27;20115;-65
2023/04/04 00:55:31;;;;;;;6.55;3.78;;;0.30;99.90;;;;;;5107732;27;20042;-65
2023/04/04 00:57:57;;;;;;;5.90;3.53;;;0.30;99.90;;;;;;5109246;27;20043;-65
2023/04/04 01:00:23;;;;;;;9.10;4.13;;;0.30;99.90;;;;;;5103097;27;20043;-65
2023/04/04 01:02:49;;;;;;;8.48;4.07;;;0.30;99.90;;;;;;5107625;27;20031;-65
2023/04/04 01:05:15;;;;;;;8.05;4.15;;;0.40;99.90;;;;;;5110254;27;20047;-65
2023/04/04 01:07:41;;;;;;;6.78;3.75;;;0.40;99.90;;;;;;5120865;27;20046;-65
2023/04/04 01:10:07;;;;;;;7.15;3.58;;;0.40;99.90;;;;;;5111223;27;20494;-65
2023/04/04 01:12:34;;;;;;;8.52;4.07;;;0.40;99.90;;;;;;5128561;27;20061;-65
2023/04/04 01:14:59;;;;;;;10.43;4.43;;;0.40;99.90;;;;;;5109509;27;20038;-65
2023/04/04 01:17:26;;;;;;;7.70;4.55;;;0.30;99.90;;;;;;5109084;27;20035;-65
2023/04/04 01:20:16;;;;;;;8.45;4.55;;;0.30;99.90;;;;;;5122984;27;20088;-65
2023/04/04 01:22:44;;;;;;;8.02;4.28;;;0.30;99.90;;;;;;5129790;27;20031;-65
2023/04/04 01:25:11;;;;;;;6.95;3.92;;;0.30;99.90;;;;;;5125971;27;20046;-65
2023/04/04 01:27:37;;;;;;;9.10;4.40;;;0.30;99.90;;;;;;5107487;27;20044;-65
2023/04/04 01:30:04;;;;;;;9.35;4.43;;;0.30;99.90;;;;;;5118717;27;20039;-65
2023/04/04 01:32:46;;;;;;;8.63;4.38;;;0.40;99.90;;;;;;5133418;27;20393;-65
2023/04/04 01:35:31;;;;;;;13.50;4.60;;;0.40;99.90;;;;;;5135798;27;20425;-65
2023/04/04 01:38:23;;;;;;;11.77;4.60;;;0.40;99.90;;;;;;5104928;27;20040;-64
2023/04/04 01:40:53;;;;;;;9.90;4.43;;;0.40;99.90;;;;;;5107127;27;20040;-65
2023/04/04 01:43:19;;;;;;;8.98;4.85;;;0.40;99.90;;;;;;5105548;27;20493;-65
2023/04/04 01:45:45;;;;;;;8.98;4.47;;;0.40;99.90;;;;;;5129802;27;20073;-64
2023/04/04 01:48:10;;;;;;;10.18;4.40;;;0.40;99.90;;;;;;5104646;27;20126;-65
2023/04/04 01:50:36;;;;;;;9.93;5.03;;;0.40;99.90;;;;;;5126877;27;20038;-65
2023/04/04 01:53:02;;;;;;;8.40;5.07;;;0.40;99.90;;;;;;5109489;27;20039;-65
2023/04/04 01:55:27;;;;;;;9.65;4.97;;;0.40;99.90;;;;;;5109060;27;20091;-64
2023/04/04 01:57:53;;;;;;;10.10;4.90;;;0.40;99.90;;;;;;5126734;27;20039;-65
2023/04/04 02:00:18;;;;;;;8.23;4.53;;;0.40;99.90;;;;;;5120036;27;20046;-65
2023/04/04 02:02:44;;;;;;;13.40;4.93;;;0.40;99.90;;;;;;5107496;27;20195;-64
2023/04/04 02:05:09;;;;;;;11.10;4.95;;;0.40;99.90;;;;;;5126890;27;20054;-65
2023/04/04 02:07:36;;;;;;;7.93;4.63;;;0.30;99.90;;;;;;5108780;27;20074;-65
2023/04/04 02:10:02;;;;;;;11.65;5.15;;;0.30;99.90;;;;;;5130647;27;20489;-65
2023/04/04 02:12:28;;;;;;;10.40;4.90;;;0.30;99.90;;;;;;5132938;27;20504;-65
2023/04/04 02:14:53;;;;;;;8.50;4.70;;;0.30;99.90;;;;;;5109729;27;20118;-65
2023/04/04 02:17:19;;;;;;;9.90;4.88;;;0.30;99.90;;;;;;5109361;27;20074;-65
2023/04/04 02:19:44;;;;;;;11.57;5.13;;;0.30;99.90;;;;;;5120599;27;20038;-64
2023/04/04 02:22:10;;;;;;;13.23;5.35;;;0.30;99.90;;;;;;5120930;27;20041;-64
2023/04/04 02:24:36;;;;;;;11.88;4.97;;;0.30;99.90;;;;;;5110336;28;20047;-65
2023/04/04 02:27:01;;;;;;;10.00;4.82;;;0.20;99.90;;;;;;5125746;28;20031;-65
2023/04/04 02:29:27;;;;;;;7.55;4.88;;;0.20;99.90;;;;;;5105964;28;20805;-65
2023/04/04 02:31:52;;;;;;;8.43;4.90;;;0.10;99.90;;;;;;5104951;28;20051;-64
2023/04/04 02:34:23;;;;;;;7.82;5.00;;;0.10;99.90;;;;;;5119211;28;20482;-64
2023/04/04 02:36:48;;;;;;;13.00;5.90;;;0.10;99.90;;;;;;5122954;27;20039;-64
2023/04/04 02:39:14;;;;;;;11.18;5.18;;;0.10;99.90;;;;;;5105147;28;20390;-65
2023/04/04 02:41:40;;;;;;;10.32;5.25;;;0.00;99.90;;;;;;5125998;27;20031;-65
2023/04/04 02:44:12;;;;;;;7.80;5.40;;;0.00;99.90;;;;;;5110334;28;20047;-65
2023/04/04 02:46:38;;;;;;;;;;;0.00;99.90;;;;;;5121701;27;20043;-65
2023/04/04 02:49:04;;;;;;;9.40;5.03;;;0.00;99.90;;;;;;5119735;28;20027;-65
2023/04/04 02:51:32;;;;;;;8.63;4.93;;;0.00;99.90;;;;;;5105373;28;20043;-65
2023/04/04 02:53:57;;;;;;;11.30;5.35;;;0.00;99.90;;;;;;5112482;28;20655;-65
2023/04/04 02:56:23;;;;;;;11.73;5.35;;;0.00;99.90;;;;;;5107197;28;20058;-65
2023/04/04 02:58:53;;;;;;;8.63;4.95;;;0.00;99.90;;;;;;5126161;27;20531;-65
2023/04/04 03:01:18;;;;;;;14.35;5.40;;;0.00;99.90;;;;;;5127510;27;20111;-65
2023/04/04 03:04:04;;;;;;;12.07;5.35;;;0.00;99.90;;;;;;5127175;28;20158;-65
2023/04/04 03:06:33;;;;;;;11.45;5.22;;;-0.10;99.90;;;;;;5111804;28;20047;-64
2023/04/04 03:08:59;;;;;;;12.57;5.28;;;-0.10;99.90;;;;;;5111586;28;20047;-65
2023/04/04 03:11:26;;;;;;;9.13;5.18;;;0.00;99.90;;;;;;5117156;27;20105;-65
2023/04/04 03:13:54;;;;;;;9.43;5.05;;;0.00;99.90;;;;;;5115507;27;20043;-65
2023/04/04 03:16:21;;;;;;;10.65;4.88;;;0.00;99.90;;;;;;5126528;27;20068;-64
2023/04/04 03:18:46;;;;;;;8.63;5.05;;;0.00;99.90;;;;;;5109001;28;20122;-64
2023/04/04 03:21:12;;;;;;;14.13;5.85;;;0.00;99.90;;;;;;5089025;28;1077640;-65
2023/04/04 03:23:38;;;;;;;8.25;4.70;;;-0.10;99.90;;;;;;5104945;28;20051;-64
2023/04/04 03:26:03;;;;;;;16.60;5.40;;;-0.10;99.90;;;;;;5124524;28;20608;-64
2023/04/04 03:28:30;;;;;;;17.88;5.47;;;-0.10;99.90;;;;;;5123101;28;20039;-65
2023/04/04 03:30:55;;;;;;;11.57;4.60;;;-0.10;99.90;;;;;;5124662;28;20046;-64
2023/04/04 03:33:21;;;;;;;14.80;5.80;;;-0.10;99.90;;;;;;5126669;28;20405;-64
2023/04/04 03:35:47;;;;;;;7.72;5.10;;;-0.20;99.90;;;;;;5118196;28;20987;-65
2023/04/04 03:38:12;;;;;;;10.27;5.15;;;-0.20;99.90;;;;;;5102424;28;20039;-65
2023/04/04 03:41:00;;;;;;;9.20;5.05;;;-0.20;99.90;;;;;;5101551;28;20070;-65
2023/04/04 03:43:27;;;;;;;7.63;4.57;;;-0.30;99.90;;;;;;5123855;27;20059;-65
2023/04/04 03:45:52;;;;;;;10.48;5.00;;;-0.30;99.90;;;;;;5098756;28;20040;-65
2023/04/04 03:48:18;;;;;;;11.77;4.97;;;-0.30;99.90;;;;;;5106383;28;20065;-65
2023/04/04 03:50:43;;;;;;;10.07;5.65;;;-0.30;99.90;;;;;;5103805;28;20035;-64
2023/04/04 03:53:11;;;;;;;9.50;5.50;;;-0.40;99.90;;;;;;5108312;28;20088;-65
2023/04/04 03:55:40;;;;;;;9.07;5.13;;;-0.40;99.90;;;;;;5099538;28;20039;-65
2023/04/04 03:58:06;;;;;;;9.93;5.28;;;-0.30;99.90;;;;;;5110064;28;20100;-64
2023/04/04 04:00:50;;;;;;;10.10;4.82;;;-0.30;99.90;;;;;;5114816;28;20047;-64
2023/04/04 04:03:26;;;;;;;11.60;5.68;;;-0.30;99.90;;;;;;5121173;27;20035;-64
2023/04/04 04:05:52;;;;;;;11.40;5.25;;;-0.30;99.90;;;;;;5125558;28;20038;-64
2023/04/04 04:08:18;;;;;;;10.73;5.80;;;-0.30;99.90;;;;;;5105702;28;20474;-64
2023/04/04 04:10:53;;;;;;;9.40;4.95;;;-0.30;99.90;;;;;;5125648;27;20446;-64
2023/04/04 04:13:19;;;;;;;9.02;5.03;;;-0.30;99.90;;;;;;5117665;28;20486;-65
2023/04/04 04:15:44;;;;;;;10.63;5.07;;;-0.30;99.90;;;;;;5122243;28;20031;-64
2023/04/04 04:18:10;;;;;;;8.98;5.40;;;-0.30;99.90;;;;;;5120141;27;20079;-65
2023/04/04 04:20:35;;;;;;;12.77;5.38;;;-0.40;99.90;;;;;;5126049;27;20046;-65
2023/04/04 04:23:01;;;;;;;12.20;5.28;;;-0.50;99.90;;;;;;5110833;27;20042;-65
2023/04/04 04:25:26;;;;;;;10.45;5.43;;;-0.50;99.90;;;;;;5108654;27;20066;-65
2023/04/04 04:27:56;;;;;;;8.75;5.47;;;-0.60;99.90;;;;;;5125201;27;20050;-65
2023/04/04 04:30:22;;;;;;;9.43;5.00;;;-0.60;99.90;;;;;;5111561;27;20370;-65
2023/04/04 04:32:48;;;;;;;10.43;5.20;;;-0.60;99.90;;;;;;5103880;27;20170;-65
2023/04/04 04:35:17;;;;;;;8.07;5.10;;;-0.70;99.90;;;;;;5104926;27;20040;-65
2023/04/04 04:37:42;;;;;;;9.73;5.13;;;-0.70;99.90;;;;;;5123777;27;20040;-65
2023/04/04 04:40:09;;;;;;;8.18;4.63;;;-0.70;99.90;;;;;;5098877;27;20062;-65
2023/04/04 04:42:34;;;;;;;10.68;4.90;;;-0.80;99.90;;;;;;5125305;27;20042;-65
2023/04/04 04:45:00;;;;;;;11.02;5.07;;;-0.90;99.90;;;;;;5099987;27;20043;-65
2023/04/04 04:47:26;;;;;;;9.43;4.80;;;-0.90;99.90;;;;;;5101623;27;20039;-65
2023/04/04 04:49:52;;;;;;;8.88;4.75;;;-1.00;99.90;;;;;;5125449;27;20086;-64
2023/04/04 04:52:18;;;;;;;7.55;4.65;;;-1.00;99.90;;;;;;5109250;27;20448;-65
2023/04/04 04:54:44;;;;;;;8.00;4.45;;;-1.10;99.90;;;;;;5125393;27;20118;-65
2023/04/04 04:57:09;;;;;;;10.75;5.20;;;-1.10;99.90;;;;;;5103499;27;20130;-65
2023/04/04 04:59:35;;;;;;;11.25;5.30;;;-1.10;99.90;;;;;;5107115;27;20535;-65
2023/04/04 05:02:01;;;;;;;10.98;5.28;;;-1.20;99.90;;;;;;5122194;27;20040;-65
2023/04/04 05:04:26;;;;;;;12.15;5.55;;;-1.20;99.90;;;;;;5126534;27;20092;-65
2023/04/04 05:06:55;;;;;;;9.55;5.60;;;-1.20;99.90;;;;;;5118087;27;20823;-65
2023/04/04 05:09:21;;;;;;;11.32;5.45;;;-1.30;99.90;;;;;;5120421;27;20035;-65
2023/04/04 05:11:46;;;;;;;12.05;5.35;;;-1.30;99.90;;;;;;5125908;27;20383;-65
2023/04/04 05:14:12;;;;;;;12.45;5.20;;;-1.30;99.90;;;;;;5124026;27;20448;-65
2023/04/04 05:16:37;;;;;;;9.05;5.95;;;-1.30;99.90;;;;;;5102819;27;20043;-65
2023/04/04 05:19:03;;;;;;;8.57;5.18;;;-1.30;99.90;;;;;;5092326;27;20043;-65
2023/04/04 05:21:29;;;;;;;11.80;5.88;;;-1.30;99.90;;;;;;5105639;27;20367;-65
2023/04/04 05:23:55;;;;;;;11.88;5.82;;;-1.20;99.90;;;;;;5104400;27;20035;-65
2023/04/04 05:26:20;;;;;;;13.75;7.60;;;-1.20;99.90;;;;;;5122378;27;20035;-65
2023/04/04 05:28:46;;;;;;;13.18;7.50;;;-1.20;99.90;;;;;;5104112;27;20097;-65
2023/04/04 05:31:11;;;;;;;14.13;7.28;;;-1.20;99.90;;;;;;5108769;27;20085;-65
2023/04/04 05:33:37;;;;;;;12.82;6.63;;;-1.20;99.90;;;;;;5103268;27;20126;-65
2023/04/04 05:36:02;;;;;;;11.13;6.35;;;-1.10;99.90;;;;;;5106241;27;20041;-65
2023/04/04 05:38:28;;;;;;;10.48;5.68;;;-1.00;99.90;;;;;;5101547;27;20455;-65
2023/04/04 05:40:54;;;;;;;10.00;5.70;;;-1.00;99.90;;;;;;5107036;27;20401;-65
2023/04/04 05:43:20;;;;;;;9.25;5.53;;;-0.90;99.90;;;;;;5103056;27;20782;-65
2023/04/04 05:45:46;;;;;;;9.75;5.65;;;-0.80;99.90;;;;;;5125382;27;20046;-65
2023/04/04 05:48:11;;;;;;;10.85;5.55;;;-0.70;99.90;;;;;;5099767;27;20474;-65
2023/04/04 05:50:37;;;;;;;9.45;5.55;;;-0.60;99.90;;;;;;5124194;27;20063;-65
2023/04/04 05:53:03;;;;;;;8.10;5.20;;;-0.60;99.90;;;;;;5109246;27;20482;-65
2023/04/04 05:55:29;;;;;;;9.73;5.80;;;-0.50;99.90;;;;;;5104343;27;20085;-65
2023/04/04 05:57:55;;;;;;;10.02;5.72;;;-0.40;99.90;;;;;;5119586;27;20063;-65
2023/04/04 06:00:21;;;;;;;11.50;6.28;;;-0.30;99.90;;;;;;5119602;27;20504;-65
2023/04/04 06:02:47;;;;;;;10.30;5.72;;;-0.30;99.90;;;;;;5105547;27;20043;-65
2023/04/04 06:05:12;;;;;;;8.98;5.53;;;-0.30;99.90;;;;;;5107206;27;20034;-65
2023/04/04 06:07:39;;;;;;;11.13;5.72;;;-0.20;99.90;;;;;;5120527;27;20046;-65
2023/04/04 06:10:06;;;;;;;9.70;5.68;;;-0.20;99.90;;;;;;5105118;27;20092;-65
2023/04/04 06:12:31;;;;;;;10.60;5.45;;;-0.20;99.90;;;;;;5123485;27;20405;-65
2023/04/04 06:14:57;;;;;;;11.88;5.85;;;-0.10;99.90;;;;;;5105659;27;20064;-65
2023/04/04 06:17:23;;;;;;;11.68;6.13;;;0.00;99.90;;;;;;5129107;27;20023;-65
2023/04/04 06:19:49;;;;;;;10.57;5.70;;;0.00;99.90;;;;;;5119695;27;20069;-65
2023/04/04 06:22:16;;;;;;;11.02;5.78;;;0.10;99.90;;;;;;5123719;27;20039;-65
2023/04/04 06:24:42;;;;;;;10.02;5.45;;;0.20;99.90;;;;;;5122701;27;20188;-65
2023/04/04 06:27:07;;;;;;;11.20;6.13;;;0.30;99.90;;;;;;5118092;27;20039;-65
2023/04/04 06:29:33;;;;;;;8.88;5.60;;;0.30;99.90;;;;;;5106834;27;20031;-65
2023/04/04 06:31:59;;;;;;;11.40;5.53;;;0.40;99.90;;;;;;5106204;27;20042;-65
2023/04/04 06:34:25;;;;;;;10.32;5.85;;;0.40;99.90;;;;;;5108653;27;20070;-65
2023/04/04 06:36:53;;;;;;;9.60;5.60;;;0.50;99.90;;;;;;5128467;27;20065;-65
2023/04/04 06:39:18;;;;;;;8.40;4.72;;;0.60;99.90;;;;;;5126577;27;20100;-65
2023/04/04 06:41:44;;;;;;;9.82;5.45;;;0.60;99.90;;;;;;5108921;28;20047;-65
2023/04/04 06:44:09;;;;;;;10.88;5.20;;;0.70;99.90;;;;;;5116710;27;20042;-65
2023/04/04 06:46:38;;;;;;;9.73;5.38;;;0.80;99.90;;;;;;5089118;27;20470;-65
2023/04/04 06:49:05;;;;;;;9.20;4.80;;;0.80;99.90;;;;;;5098169;27;20108;-65
2023/04/04 06:51:33;;;;;;;9.25;5.68;;;0.90;99.90;;;;;;5101487;28;20047;-65
2023/04/04 06:53:59;;;;;;;10.30;5.15;;;1.00;99.90;;;;;;5095540;28;20048;-65
2023/04/04 06:56:25;;;;;;;7.65;5.15;;;1.20;99.90;;;;;;5114543;27;20485;-65
2023/04/04 06:58:51;;;;;;;11.55;5.30;;;1.30;99.90;;;;;;5134319;27;20050;-65
2023/04/04 07:01:19;;;;;;;12.23;5.03;;;1.40;99.90;;;;;;5123936;27;20038;-65
2023/04/04 07:03:44;;;;;;;7.22;4.65;;;1.60;99.90;;;;;;5135671;27;20035;-65
2023/04/04 07:06:10;;;;;;;9.45;5.10;;;1.80;99.90;;;;;;5130080;27;20038;-65
2023/04/04 07:08:36;;;;;;;10.57;5.22;;;1.90;99.90;;;;;;5108744;28;20040;-65
2023/04/04 07:11:02;;;;;;;10.02;4.90;;;2.10;99.90;;;;;;5113527;28;20554;-65
2023/04/04 07:13:27;;;;;;;9.32;4.50;;;2.30;99.90;;;;;;5113993;28;20050;-65
2023/04/04 07:15:54;;;;;;;10.30;4.60;;;2.50;99.90;;;;;;5118886;27;20035;-65
2023/04/04 07:18:20;;;;;;;10.75;4.53;;;2.60;99.90;;;;;;5126822;27;20058;-65
2023/04/04 07:20:46;;;;;;;10.20;4.40;;;2.80;99.90;;;;;;5132621;28;20032;-65
2023/04/04 07:23:14;;;;;;;7.63;4.50;;;2.90;99.90;;;;;;5111944;27;20047;-65
2023/04/04 07:25:40;;;;;;;6.85;3.90;;;3.00;99.90;;;;;;5114164;27;20071;-65
2023/04/04 07:28:06;;;;;;;9.02;4.45;;;3.10;99.90;;;;;;5109628;28;20070;-65
2023/04/04 07:30:45;;;;;;;8.85;4.13;;;3.20;99.90;;;;;;5113750;28;20054;-65
2023/04/04 07:33:11;;;;;;;6.32;4.20;;;3.40;99.90;;;;;;5133106;28;20049;-65
2023/04/04 07:35:36;;;;;;;8.05;3.58;;;3.50;99.90;;;;;;5132357;27;20373;-65
2023/04/04 07:38:03;;;;;;;8.05;3.33;;;3.60;99.90;;;;;;5133126;28;20042;-66
2023/04/04 07:40:28;;;;;;;6.32;3.60;;;3.70;99.90;;;;;;5109023;28;20079;-65
2023/04/04 07:43:01;;;;;;;7.30;3.63;;;3.90;99.90;;;;;;5132922;27;20071;-65
2023/04/04 07:45:26;;;;;;;9.32;3.70;;;4.00;99.90;;;;;;5124362;27;20043;-65
2023/04/04 07:48:02;;;;;;;7.18;3.08;;;4.20;99.90;;;;;;5094815;28;20043;-65
2023/04/04 07:50:28;;;;;;;5.82;3.15;;;4.30;99.90;;;;;;5095336;28;20089;-65
2023/04/04 07:52:54;;;;;;;6.57;2.95;;;4.50;99.90;;;;;;5095340;28;20036;-66
2023/04/04 07:55:23;;;;;;;5.00;2.70;;;4.50;99.90;;;;;;5112908;27;20043;-65
2023/04/04 07:57:50;;;;;;;5.40;2.78;;;4.60;99.90;;;;;;5134393;27;20117;-65
2023/04/04 08:00:20;;;;;;;5.70;2.92;;;4.80;99.90;;;;;;5134844;27;20050;-66
2023/04/04 08:02:50;;;;;;;3.53;2.38;;;4.90;99.90;;;;;;5136548;27;20382;-65
2023/04/04 08:05:17;;;;;;;8.70;3.05;;;5.00;99.90;;;;;;5134619;27;20450;-65
2023/04/04 08:07:43;;;;;;;6.78;2.90;;;5.10;99.90;;;;;;5136304;27;20393;-65
2023/04/04 08:10:09;;;;;;;6.97;3.03;;;5.20;99.90;;;;;;5116568;27;20054;-65
2023/04/04 08:12:35;;;;;;;6.90;3.03;;;5.30;99.90;;;;;;5135134;27;20330;-65
2023/04/04 08:15:00;;;;;;;8.15;2.70;;;5.40;99.90;;;;;;5131051;27;20036;-65
2023/04/04 08:17:27;;;;;;;7.13;3.08;;;5.50;99.90;;;;;;5135710;27;20049;-65
2023/04/04 08:19:53;;;;;;;7.53;2.58;;;5.50;99.90;;;;;;5134078;27;20408;-65
2023/04/04 08:22:19;;;;;;;6.25;2.70;;;5.60;99.90;;;;;;5115841;27;20074;-65
2023/04/04 08:24:45;;;;;;;4.63;2.60;;;5.70;99.90;;;;;;5098318;27;20135;-65
2023/04/04 08:27:11;;;;;;;5.40;2.90;;;5.80;99.90;;;;;;5135869;27;20031;-65
2023/04/04 08:29:36;;;;;;;7.05;3.00;;;5.90;99.90;;;;;;5111553;27;20038;-65
2023/04/04 08:32:02;;;;;;;5.05;2.78;;;6.00;99.90;;;;;;5115701;27;20036;-65
2023/04/04 08:34:28;;;;;;;7.10;2.85;;;6.10;99.90;;;;;;5122561;27;20046;-65
2023/04/04 08:36:54;;;;;;;6.57;2.25;;;6.10;99.90;;;;;;5128796;27;20033;-65
2023/04/04 08:39:19;;;;;;;8.73;2.50;;;6.30;99.90;;;;;;5104281;27;20047;-65
2023/04/04 08:41:56;;;;;;;7.82;2.47;;;6.40;99.90;;;;;;5117755;27;20035;-65
2023/04/04 08:44:23;;;;;;;4.47;2.13;;;6.50;99.90;;;;;;5111031;27;20046;-65
2023/04/04 08:46:49;;;;;;;5.55;2.45;;;6.60;99.90;;;;;;5096512;28;20096;-65
2023/04/04 08:49:17;;;;;;;5.15;2.30;;;6.60;99.90;;;;;;5125222;27;20528;-65
2023/04/04 08:51:44;;;;;;;6.10;2.13;;;6.60;99.90;;;;;;5133998;27;20050;-65
2023/04/04 08:54:12;;;;;;;4.97;2.40;;;6.60;99.90;;;;;;5115553;27;20135;-65
2023/04/04 08:56:37;;;;;;;5.13;2.30;;;6.60;99.90;;;;;;5110210;27;20051;-65
2023/04/04 08:59:03;;;;;;;6.82;2.17;;;6.70;99.90;;;;;;5134140;27;20505;-65
2023/04/04 09:01:29;;;;;;;2.97;2.00;;;6.70;99.90;;;;;;5130040;27;20039;-65
2023/04/04 09:04:00;;;;;;;5.78;2.20;;;6.70;99.90;;;;;;5135069;27;20027;-65
2023/04/04 09:06:27;;;;;;;4.82;1.80;;;6.70;99.90;;;;;;5131024;27;20035;-64
2023/04/04 09:08:58;;;;;;;4.93;2.28;;;6.80;99.90;;;;;;5122975;27;20073;-64
2023/04/04 09:11:26;;;;;;;4.28;2.33;;;6.90;99.90;;;;;;5130376;27;20043;-64
2023/04/04 09:13:53;;;;;;;6.13;2.20;;;6.90;99.90;;;;;;5135100;27;20063;-64
2023/04/04 09:16:19;;;;;;;6.68;2.28;;;7.00;99.90;;;;;;5110415;27;20103;-64
2023/04/04 09:18:44;;;;;;;3.97;1.95;;;7.10;99.90;;;;;;5133532;27;20486;-64
2023/04/04 09:21:11;;;;;;;4.10;1.98;;;7.20;99.90;;;;;;5129842;27;20172;-65
2023/04/04 09:23:38;;;;;;;5.47;2.03;;;7.20;99.90;;;;;;5112648;27;20038;-64
2023/04/04 09:26:04;;;;;;;4.95;2.15;;;7.30;99.90;;;;;;5103442;27;20501;-64
2023/04/04 09:28:30;;;;;;;7.20;2.25;;;7.30;99.90;;;;;;5123313;27;20050;-64
2023/04/04 09:30:58;;;;;;;5.93;2.65;;;7.30;99.90;;;;;;5118959;27;20777;-65
2023/04/04 09:33:24;;;;;;;5.40;2.60;;;7.30;99.90;;;;;;5118907;27;20034;-64
2023/04/04 09:35:56;;;;;;;5.78;2.33;;;7.40;99.90;;;;;;5118982;27;20027;-65
2023/04/04 09:38:25;;;;;;;5.85;2.40;;;7.40;99.90;;;;;;5122629;27;20039;-65
2023/04/04 09:40:53;;;;;;;4.88;2.40;;;7.50;99.90;;;;;;5120742;27;20043;-65
2023/04/04 09:43:21;;;;;;;4.47;2.45;;;7.60;99.90;;;;;;5124082;27;20042;-64
2023/04/04 09:45:47;;;;;;;6.57;2.80;;;7.60;99.90;;;;;;5122986;27;20104;-64
2023/04/04 09:48:23;;;;;;;4.38;2.50;;;7.60;99.90;;;;;;5102376;27;20051;-65
2023/04/04 09:50:49;;;;;;;5.03;2.40;;;7.40;99.90;;;;;;5121957;27;20043;-64
2023/04/04 09:53:18;;;;;;;4.20;2.35;;;7.50;99.90;;;;;;5114694;27;20050;-64
2023/04/04 09:55:52;;;;;;;4.28;2.22;;;7.60;99.90;;;;;;5099681;28;20045;-64
2023/04/04 09:58:26;;;;;;;5.85;2.67;;;7.70;99.90;;;;;;5095175;28;20048;-64
2023/04/04 10:00:55;;;;;;;6.40;2.30;;;7.70;99.90;;;;;;5120781;27;20035;-64
2023/04/04 10:03:22;;;;;;;3.58;1.40;;;7.70;99.90;;;;;;5132141;27;20044;-64
2023/04/04 10:06:03;;;;;;;5.93;2.55;;;7.90;99.90;;;;;;5119864;27;20386;-64
2023/04/04 10:08:28;;;;;;;5.43;2.58;;;7.90;99.90;;;;;;5116150;27;20122;-64
2023/04/04 10:11:02;;;;;;;7.03;2.42;;;8.00;99.90;;;;;;5132978;27;20156;-64
2023/04/04 10:13:29;;;;;;;3.55;2.42;;;8.10;99.90;;;;;;5096228;28;20039;-65
2023/04/04 10:15:56;;;;;;;5.22;2.67;;;8.20;99.90;;;;;;5123170;27;20039;-64
2023/04/04 10:18:26;;;;;;;4.68;2.30;;;8.30;99.90;;;;;;5134449;27;20040;-64
2023/04/04 10:20:57;;;;;;;6.68;2.67;;;8.40;99.90;;;;;;5126278;27;20110;-64
2023/04/04 10:23:25;;;;;;;6.22;2.30;;;8.50;99.90;;;;;;5095736;28;20054;-65
2023/04/04 10:25:51;;;;;;;4.88;2.08;;;8.50;99.90;;;;;;5118908;27;20088;-64
2023/04/04 10:28:19;;;;;;;3.45;2.15;;;8.50;99.90;;;;;;5134146;27;20046;-65
2023/04/04 10:31:07;;;;;;;5.28;2.40;;;8.50;99.90;;;;;;5133301;27;20106;-66
2023/04/04 10:33:48;;;;;;;6.03;2.40;;;8.60;99.90;;;;;;5110871;28;20039;-64
2023/04/04 10:36:21;;;;;;;6.15;2.60;;;8.70;99.90;;;;;;5104556;27;20050;-65
2023/04/04 10:38:55;;;;;;;6.03;2.25;;;8.70;99.90;;;;;;5134605;27;20122;-65
2023/04/04 10:41:22;;;;;;;4.85;2.35;;;8.80;99.90;;;;;;5107128;27;20042;-66
2023/04/04 10:43:49;;;;;;;5.30;2.45;;;8.80;99.90;;;;;;5134272;27;20132;-66
2023/04/04 10:46:18;;;;;;;5.75;2.63;;;8.80;99.90;;;;;;5133133;27;20039;-66
2023/04/04 10:48:49;;;;;;;6.25;2.38;;;8.80;99.90;;;;;;5100808;28;20474;-66
2023/04/04 10:51:15;;;;;;;5.32;2.55;;;8.80;99.90;;;;;;5113889;28;20470;-65
2023/04/04 10:53:41;;;;;;;4.47;2.78;;;9.00;99.90;;;;;;5110412;28;20467;-65
2023/04/04 10:56:08;;;;;;;5.30;2.97;;;8.90;99.90;;;;;;5112092;27;20070;-65
2023/04/04 10:58:39;;;;;;;5.10;2.60;;;8.90;99.90;;;;;;5114707;27;20048;-65
2023/04/04 11:01:06;;;;;;;4.93;2.63;;;8.90;99.90;;;;;;5124586;27;20378;-64
2023/04/04 11:04:12;;;;;;;5.25;2.47;;;9.00;99.90;;;;;;5100063;27;20043;-65
2023/04/04 11:07:09;;;;;;;5.75;2.75;;;9.00;99.90;;;;;;5095909;28;20603;-65
2023/04/04 11:09:53;;;;;;;7.18;2.80;;;9.10;99.90;;;;;;5102573;28;20082;-64
2023/04/04 11:12:37;;;;;;;4.65;2.90;;;9.30;99.90;;;;;;5130821;28;20036;-64
2023/04/04 11:15:06;;;;;;;7.03;3.05;;;9.50;99.90;;;;;;5115561;28;20046;-65
2023/04/04 11:17:59;;;;;;;6.78;3.13;;;9.60;99.90;;;;;;5113763;27;20381;-65
2023/04/04 11:20:36;;;;;;;5.68;2.85;;;9.70;99.00;;;;;;5095649;28;20044;-64
2023/04/04 11:23:06;;;;;;;5.90;2.92;;;9.80;99.90;;;;;;5100070;28;20046;-64
2023/04/04 11:25:48;;;;;;;5.97;2.83;;;9.90;98.80;;;;;;5102586;28;20036;-65
2023/04/04 11:28:43;;;;;;;6.82;2.80;;;9.80;99.90;;;;;;5115393;27;20126;-64
2023/04/04 11:31:19;;;;;;;5.80;2.65;;;9.90;99.90;;;;;;5107332;27;20047;-64
2023/04/04 11:34:03;;;;;;;5.53;2.60;;;10.00;99.90;;;;;;5128659;27;20031;-64
2023/04/04 11:36:38;;;;;;;8.80;3.25;;;10.10;99.90;;;;;;5125189;27;20047;-64
2023/04/04 11:39:09;;;;;;;5.28;2.55;;;10.10;93.30;;;;;;5137259;27;20410;-64
2023/04/04 11:42:07;;;;;;;5.32;2.60;;;10.10;97.10;;;;;;5108545;28;20048;-64
2023/04/04 11:44:59;;;;;;;5.70;3.25;;;10.20;98.40;;;;;;5060867;28;20536;-64
2023/04/04 11:47:24;;;;;;;6.10;2.97;;;10.30;97.10;;;;;;5114681;27;20043;-64
2023/04/04 11:49:52;;;;;;;7.72;3.22;;;10.30;97.90;;;;;;5137083;27;20450;-65
2023/04/04 11:52:18;;;;;;;5.78;3.17;;;10.40;98.50;;;;;;5114875;27;20084;-65
2023/04/04 11:54:46;;;;;;;8.10;3.03;;;10.40;99.80;;;;;;5114001;27;20039;-64
2023/04/04 11:57:19;;;;;;;7.25;2.95;;;10.50;98.20;;;;;;5127274;27;20082;-65
2023/04/04 11:59:49;;;;;;;6.32;3.20;;;10.50;99.50;;;;;;5129054;27;20039;-63
2023/04/04 12:02:18;;;;;;;7.15;3.40;;;10.50;99.90;;;;;;5134831;27;20386;-62
2023/04/04 12:04:46;;;;;;;5.07;2.63;;;10.60;99.90;;;;;;5132876;27;20046;-63
2023/04/04 12:07:12;;;;;;;6.25;3.13;;;10.60;97.70;;;;;;5124420;27;20094;-63
2023/04/04 12:09:39;;;;;;;7.97;2.97;;;10.60;94.70;;;;;;5103807;27;20047;-63
2023/04/04 12:12:06;;;;;;;4.15;2.70;;;10.40;93.60;;;;;;5131377;27;20039;-63
2023/04/04 12:14:32;;;;;;;5.78;2.90;;;10.10;95.80;;;;;;5131578;27;20039;-62
2023/04/04 12:16:58;;;;;;;4.70;2.90;;;10.10;96.00;;;;;;5125979;27;20089;-63
2023/04/04 12:19:26;;;;;;;6.45;3.20;;;10.20;97.00;;;;;;5115773;27;20089;-63
2023/04/04 12:21:53;;;;;;;7.80;3.00;;;10.30;95.30;;;;;;5115777;27;20085;-62
2023/04/04 12:24:19;;;;;;;5.35;2.60;;;10.30;95.90;;;;;;5117466;27;20091;-64
2023/04/04 12:26:48;;;;;;;5.93;2.80;;;10.40;94.60;;;;;;5116414;27;20127;-63
2023/04/04 12:29:19;;;;;;;4.88;3.10;;;10.40;92.80;;;;;;5116797;27;20099;-63
2023/04/04 12:31:45;;;;;;;6.60;3.53;;;10.40;94.70;;;;;;5118670;27;20047;-62
2023/04/04 12:34:23;;;;;;;4.93;3.13;;;10.40;94.40;;;;;;5135464;27;20050;-63
2023/04/04 12:36:51;;;;;;;4.95;3.08;;;10.70;94.70;;;;;;5119088;27;20489;-64
2023/04/04 12:39:20;;;;;;;6.80;3.42;;;10.70;92.80;;;;;;5097243;28;20063;-63
2023/04/04 12:41:53;;;;;;;5.30;2.95;;;10.80;91.60;;;;;;5098434;27;20143;-63
2023/04/04 12:44:41;;;;;;;5.93;3.15;;;10.80;93.00;;;;;;5115296;28;20416;-63
2023/04/04 12:47:24;;;;;;;5.82;2.72;;;11.00;93.80;;;;;;5109605;27;20048;-64
2023/04/04 12:49:56;;;;;;;5.60;2.65;;;11.10;90.10;;;;;;5136365;27;20398;-63
2023/04/04 12:52:30;;;;;;;5.95;3.15;;;10.90;90.30;;;;;;5101005;28;20071;-63
2023/04/04 12:54:59;;;;;;;4.57;2.90;;;10.80;93.40;;;;;;5097820;28;20028;-62
2023/04/04 12:57:26;;;;;;;5.85;2.90;;;10.80;94.40;;;;;;5108786;27;20047;-62